Airport ID:KN38
Update Time (UTC):24/05/2019 11:56
Wind Speed (Knots):11
Wind Direction (Magnetic):290
Temperature (°C):13
Dew Point (°C):8
Humidity (%):75
Altimeter (inHg):30.03
Density Altitude (Feet):
Visibility (Miles):10+
Clouds (Hundreds of feet):FEW023
Present Weather:
METAR:METAR KN38 241155Z AUTO 29012G18KT 10SM FEW023 13/08 A3003 RMK AO2

The data displayed is for advisory purposes only and is not to be used for flight planning or operations.

This page is not automatically refreshed. Reload the page to see current data.